• Join FlightAware (Why Join?)
  • Login
  • US Flag 
04:40PM EDT


 

Airport Tracker/Info


-or-


 

Live Flight TrackerFlight Track Log ✈ SWA1920 ✈ 25-May-2012 ✈ KPDX - KPHX

Flight Track Log - Related Links

Times and Time Zones

All times are in EDT time to prevent confusion due to time zone crossing. See the SWA1920 flight status page for this flight to view local times or setup timezone preferences in your user account.

Time Position Orientation Groundspeed Altitude Reporting Facility
EDT Latitude Longitude Course Direction KTS MPH feet Rate Location/Type
11:05PM 45.5778 -122.5797 171° South 200 230 600  Level Seattle Center
11:06PM 45.5217 -122.5664 181° South 234 269 3,300 2,700 Climbing Seattle Center
11:07PM 45.4675 -122.5672 176° South 241 277 5,800 2,400 Climbing Seattle Center
11:08PM 45.3964 -122.5600 120° Southeast 252 290 8,200 2,640 Climbing Seattle Center
11:09PM 45.3461 -122.4383 115° Southeast 298 343 11,200 2,460 Climbing Seattle Center
11:10PM 45.3114 -122.3308 137° Southeast 300 345 13,300 1,920 Climbing Seattle Center
11:11PM 45.2403 -122.2364 137° Southeast 348 400 15,200 1,980 Climbing Seattle Center
11:12PM 45.1667 -122.1386 137° Southeast 360 414 17,400 1,800 Climbing Seattle Center
11:13PM 45.0919 -122.0397 136° Southeast 363 418 18,900 1,800 Climbing Seattle Center
11:14PM 44.9992 -121.9153 137° Southeast 386 444 21,100 1,860 Climbing Seattle Center
11:15PM 44.9200 -121.8114 137° Southeast 419 482 22,700 1,560 Climbing Seattle Center
11:16PM 44.8331 -121.6986 137° Southeast 429 494 24,300 1,560 Climbing Seattle Center
11:17PM 44.7433 -121.5828 137° Southeast 438 504 25,900 1,560 Climbing Seattle Center
11:18PM 44.6531 -121.4653 137° Southeast 443 510 27,500 1,320 Climbing Seattle Center
11:19PM 44.5508 -121.3319 138° Southeast 450 518 28,700 1,200 Climbing Seattle Center
11:20PM 44.4550 -121.2094 137° Southeast 460 529 30,000 1,320 Climbing Seattle Center
11:21PM 44.3553 -121.0814 138° Southeast 462 532 31,400 1,380 Climbing Seattle Center
11:22PM 44.2625 -120.9639 137° Southeast 457 526 32,900 1,140 Climbing Seattle Center
11:23PM 44.1711 -120.8469 138° Southeast 452 520 33,800 900 Climbing Seattle Center
11:25PM 44.0794 -120.7331 138° Southeast 448 516 34,800 540 Climbing Seattle Center
11:26PM 43.9883 -120.6203 138° Southeast 445 512 35,000 60 Climbing Seattle Center
11:27PM 43.8975 -120.5058 137° Southeast 445 512 35,000  Level Seattle Center
11:28PM 43.8083 -120.3892 136° Southeast 445 512 35,000  Level Seattle Center
11:29PM 43.7200 -120.2708 136° Southeast 446 513 35,000  Level Seattle Center
11:30PM 43.6117 -120.1289 136° Southeast 450 518 35,000  Level Seattle Center
11:31PM 43.5219 -120.0094 135° Southeast 452 520 35,000  Level Seattle Center
11:32PM 43.4342 -119.8883 137° Southeast 451 519 35,000  Level Seattle Center
11:33PM 43.3467 -119.7775 137° Southeast 439 505 35,000  Level Seattle Center
11:34PM 43.2578 -119.6644 137° Southeast 433 498 35,000  Level Seattle Center
11:35PM 43.1694 -119.5506 136° Southeast 433 498 35,000  Level Seattle Center
11:36PM 43.0819 -119.4364 137° Southeast 434 499 35,000  Level Seattle Center
11:37PM 42.9939 -119.3239 137° Southeast 433 498 35,000  Level Seattle Center
11:38PM 42.9006 -119.2061 137° Southeast 437 503 35,000  Level Seattle Center
11:39PM 42.8022 -119.0797 137° Southeast 436 502 35,000  Level Seattle Center
11:40PM 42.7281 -118.9850 137° Southeast 432 497 35,000  Level Seattle Center
11:41PM 42.6350 -118.8667 137° Southeast 431 496 35,000  Level Seattle Center
11:42PM 42.5344 -118.7417 137° Southeast 436 502 35,000  Level Seattle Center
11:43PM 42.4608 -118.6489 138° Southeast 437 503 35,000  Level Seattle Center
11:44PM 42.3631 -118.5283 137° Southeast 437 503 35,000  Level Seattle Center
11:45PM 42.2631 -118.4028 138° Southeast 439 505 35,000  Level Seattle Center
11:46PM 42.1764 -118.2975 137° Southeast 441 507 35,000  Level Seattle Center
11:47PM 42.0911 -118.1911 137° Southeast 438 504 35,000  Level Seattle Center
11:48PM 41.9919 -118.0689 138° Southeast 435 501 35,000  Level Seattle Center
11:49PM 41.9081 -117.9675 138° Southeast 428 493 35,000  Level Seattle Center
11:50PM 41.7822 -117.8139 138° Southeast 427 491 35,000  Level Salt Lake Center
11:51PM 41.7006 -117.7150 138° Southeast 422 486 35,000  Level Salt Lake Center
11:52PM 41.6047 -117.5994 138° Southeast 417 480 35,000  Level Salt Lake Center
11:53PM 41.5231 -117.5011 138° Southeast 415 478 35,000  Level Salt Lake Center
11:54PM 41.4417 -117.4050 138° Southeast 411 473 35,000  Level Salt Lake Center
11:55PM 41.3472 -117.2914 138° Southeast 409 471 35,000  Level Salt Lake Center
11:56PM 41.2669 -117.1967 138° Southeast 405 466 35,000  Level Salt Lake Center
11:57PM 41.1733 -117.0867 138° Southeast 402 463 35,000  Level Salt Lake Center
11:59PM 41.0928 -116.9914 138° Southeast 403 464 35,000  Level Salt Lake Center
12:00AM 41.0122 -116.8964 139° Southeast 403 464 35,000  Level Salt Lake Center
12:01AM 40.9164 -116.7844 139° Southeast 406 467 35,000  Level Salt Lake Center
12:02AM 40.8344 -116.6889 139° Southeast 408 470 35,000  Level Salt Lake Center
12:03AM 40.7397 -116.5786 139° Southeast 405 466 35,000  Level Salt Lake Center
12:04AM 40.6594 -116.4853 138° Southeast 402 463 35,000  Level Salt Lake Center
12:05AM 40.5800 -116.3925 139° Southeast 398 458 35,000  Level Salt Lake Center
12:06AM 40.4883 -116.2883 139° Southeast 391 450 35,000  Level Salt Lake Center
12:07AM 40.4094 -116.1992 139° Southeast 389 448 35,000  Level Salt Lake Center
12:08AM 40.3319 -116.1100 139° Southeast 387 445 35,000  Level Salt Lake Center
12:09AM 40.2419 -116.0069 139° Southeast 384 442 35,000  Level Salt Lake Center
12:10AM 40.1656 -115.9203 139° Southeast 381 438 35,000  Level Salt Lake Center
12:11AM 40.0778 -115.8203 139° Southeast 377 434 35,000  Level Salt Lake Center
12:12AM 40.0039 -115.7353 140° Southeast 372 428 35,000  Level Salt Lake Center
12:13AM 39.9269 -115.6519 140° Southeast 373 429 35,000  Level Salt Lake Center
12:14AM 39.8375 -115.5547 139° Southeast 375 432 35,000  Level Salt Lake Center
12:15AM 39.7617 -115.4683 138° Southeast 376 433 35,000  Level Salt Lake Center
12:16AM 39.6744 -115.3664 139° Southeast 377 434 35,000  Level Salt Lake Center
12:17AM 39.5969 -115.2800 140° Southeast 375 432 35,000  Level Salt Lake Center
12:18AM 39.5217 -115.1975 140° Southeast 378 435 35,000  Level Salt Lake Center
12:19AM 39.4308 -115.0975 142° Southeast 381 438 35,000  Level Salt Lake Center
12:20AM 39.3494 -115.0156 139° Southeast 384 442 35,000  Level Salt Lake Center
12:21AM 39.2592 -114.9158 140° Southeast 384 442 35,000  Level Salt Lake Center
12:22AM 39.1839 -114.8339 139° Southeast 374 430 35,000  Level Salt Lake Center
12:23AM 39.0975 -114.7361 139° Southeast 371 427 35,000  Level Salt Lake Center
12:24AM 39.0169 -114.6469 140° Southeast 374 430 35,000  Level Salt Lake Center
12:25AM 38.9369 -114.5606 140° Southeast 372 428 35,000  Level Salt Lake Center
12:26AM 38.8547 -114.4708 140° Southeast 377 434 35,000  Level Salt Lake Center
12:27AM 38.7711 -114.3811 140° Southeast 383 441 35,000  Level Salt Lake Center
12:28AM 38.6867 -114.2911 141° Southeast 388 447 35,000  Level Salt Lake Center
12:29AM 38.6019 -114.2022 140° Southeast 387 445 35,000  Level Salt Lake Center
12:30AM 38.5164 -114.1111 140° Southeast 391 450 35,000  Level Salt Lake Center
12:31AM 38.4300 -114.0194 141° Southeast 395 455 35,000  Level Salt Lake Center
12:32AM 38.3433 -113.9292 140° Southeast 397 457 35,000  Level Salt Lake Center
12:33AM 38.2572 -113.8369 140° Southeast 396 456 35,000  Level Salt Lake Center
12:34AM 38.1703 -113.7456 141° Southeast 398 458 35,000  Level Salt Lake Center
12:35AM 38.0822 -113.6564 140° Southeast 399 459 35,000  Level Salt Lake Center
12:36AM 37.9953 -113.5653 144° Southeast 400 460 35,000  Level Salt Lake Center
12:37AM 37.9042 -113.4825 154° Southeast 398 458 35,000  Level Salt Lake Center
12:39AM 37.8103 -113.4253 155° Southeast 383 441 35,000  Level Salt Lake Center
12:40AM 37.7119 -113.3664 155° Southeast 385 443 35,000  Level Salt Lake Center
12:41AM 37.5969 -113.2972 154° Southeast 380 437 35,000  Level Salt Lake Center
12:42AM 37.5000 -113.2378 154° Southeast 382 440 35,000  Level Salt Lake Center
12:43AM 37.4028 -113.1786 154° Southeast 385 443 35,000  Level Salt Lake Center
12:44AM 37.3039 -113.1189 154° Southeast 388 447 35,000  Level Salt Lake Center
12:45AM 37.2056 -113.0594 155° Southeast 389 448 35,000 -300 Level Salt Lake Center
12:46AM 37.1075 -113.0014 154° Southeast 387 445 34,400 -840 Descending Salt Lake Center
12:47AM 37.0081 -112.9414 154° Southeast 389 448 33,300 -720 Descending Salt Lake Center
12:48AM 36.9083 -112.8814 155° Southeast 391 450 33,000 -180 Descending Salt Lake Center
12:49AM 36.8097 -112.8233 155° Southeast 390 449 33,000  Level Salt Lake Center
12:50AM 36.7097 -112.7653 154° Southeast 388 447 33,000  Level Salt Lake Center
12:51AM 36.5722 -112.6800 156° South 389 448 33,000  Level Los Angeles Center
12:52AM 36.4578 -112.6153 154° Southeast 394 453 33,000  Level Los Angeles Center
12:53AM 36.3581 -112.5550 157° South 394 453 33,000  Level Los Angeles Center
12:54AM 36.2519 -112.4981 153° Southeast 404 465 33,000 -300 Level Los Angeles Center
12:55AM 36.1522 -112.4358 166° South 404 465 32,400 -780 Descending Los Angeles Center
12:56AM 36.0428 -112.4022 183° South 404 465 31,500 -960 Descending Los Angeles Center
12:57AM 35.9303 -112.4100 182° South 396 456 30,500 -780 Descending Los Angeles Center
01:00AM 35.6758 -112.4189 182° South 401 461 29,000 -480 Descending Albuquerque Center
01:01AM 35.5650 -112.4247 185° South 406 467 29,000  Level Albuquerque Center
01:02AM 35.4539 -112.4356 176° South 406 467 29,000  Level Albuquerque Center
01:03AM 35.3436 -112.4261 170° South 406 467 29,000  Level Albuquerque Center
01:04AM 35.2342 -112.4014 169° South 400 460 29,000  Level Albuquerque Center
01:05AM 35.1228 -112.3742 169° South 405 466 29,000  Level Albuquerque Center
01:06AM 35.0153 -112.3497 170° South 405 466 29,000  Level Albuquerque Center
01:07AM 34.9056 -112.3253 169° South 405 466 29,000  Level Albuquerque Center
01:08AM 34.7961 -112.2983 170° South 405 466 29,000 -60 Level Albuquerque Center
01:09AM 34.6886 -112.2742 170° South 405 466 28,900 -1,620 Descending Albuquerque Center
01:10AM 34.5769 -112.2497 170° South 405 466 25,800 -2,880 Descending Albuquerque Center
01:11AM 34.4672 -112.2256 168° South 410 472 23,200 -2,520 Descending Albuquerque Center
01:12AM 34.3639 -112.1994 170° South 398 458 20,800 -2,460 Descending Albuquerque Center
01:13AM 34.2583 -112.1781 168° South 374 430 18,300 -1,920 Descending Albuquerque Center
01:14AM 34.1697 -112.1553 171° South 347 399 17,000 -1,320 Descending Albuquerque Center
01:15AM 34.0744 -112.1372 167° South 340 391 15,700 -1,200 Descending Albuquerque Center
01:16AM 33.9856 -112.1122 167° South 335 386 14,600 -1,680 Descending Albuquerque Center
01:18AM 33.7667 -112.0500 171° South 327 376 10,000 -1,380 Descending Phoenix TRACON
01:19AM 33.6833 -112.0333 180° South 260 299 9,900 -420 Descending Phoenix TRACON
01:20AM 33.6333 -112.0333 168° South 235 270 9,300 -660 Descending Phoenix TRACON
01:21AM 33.5667 -112.0167 132° Southeast 235 270 8,700 -960 Descending Phoenix TRACON
01:22AM 33.5167 -111.9500 76° East 260 299 7,400 -1,080 Descending Phoenix TRACON
01:23AM 33.5333 -111.8667 107° East 260 299 6,500 -1,020 Descending Phoenix TRACON
01:24AM 33.5167 -111.8000 196° South 218 251 5,400 -1,140 Descending Phoenix TRACON
01:25AM 33.4667 -111.8167 220° Southwest 187 215 4,400 -1,020 Descending Phoenix TRACON
01:26AM 33.4333 -111.8500 270° West 155 178 3,500 -900 Descending Phoenix TRACON
01:27AM 33.4333 -111.9000 270° West 163 188 2,700 -840 Descending Phoenix TRACON